createdAt,value
2024-03-30T00:00:09.854Z,0.00
2024-03-30T00:01:09.892Z,0.00
2024-03-30T00:02:09.829Z,0.00
2024-03-30T00:03:09.813Z,0.00
2024-03-30T00:04:09.791Z,0.00
2024-03-30T00:05:09.795Z,0.00
2024-03-30T00:06:10.747Z,0.00
2024-03-30T00:07:10.560Z,0.00
2024-03-30T00:08:09.900Z,0.00
2024-03-30T00:09:09.737Z,0.00
2024-03-30T00:10:09.769Z,0.00
2024-03-30T00:11:09.708Z,0.00
2024-03-30T00:12:09.700Z,0.00
2024-03-30T00:13:09.701Z,0.00
2024-03-30T00:14:09.717Z,0.00
2024-03-30T00:15:09.668Z,0.00
2024-03-30T00:16:09.667Z,0.00
2024-03-30T00:17:09.676Z,0.00
2024-03-30T00:18:10.474Z,0.00
2024-03-30T00:19:09.658Z,0.00
2024-03-30T00:20:09.668Z,0.00
2024-03-30T00:21:09.591Z,0.00
2024-03-30T00:22:09.613Z,0.00
2024-03-30T00:23:09.586Z,0.00
2024-03-30T00:24:09.664Z,0.00
2024-03-30T00:25:09.594Z,0.00
2024-03-30T00:26:09.555Z,0.00
2024-03-30T00:27:09.564Z,0.00
2024-03-30T00:28:09.552Z,0.00
2024-03-30T00:29:09.526Z,0.00
2024-03-30T00:30:09.522Z,0.00
2024-03-30T00:31:09.485Z,0.00
2024-03-30T00:32:09.490Z,0.00
2024-03-30T00:33:09.472Z,0.00
2024-03-30T00:34:09.459Z,0.00
2024-03-30T00:35:09.477Z,0.00
2024-03-30T00:36:09.447Z,0.00
2024-03-30T00:37:09.481Z,0.00
2024-03-30T00:38:09.420Z,0.00
2024-03-30T00:39:09.420Z,0.00
2024-03-30T00:40:09.416Z,0.00
2024-03-30T00:41:09.420Z,0.00
2024-03-30T00:42:09.389Z,0.00
2024-03-30T00:43:09.418Z,0.00
2024-03-30T00:44:09.340Z,0.00
2024-03-30T00:45:09.348Z,0.00
2024-03-30T00:46:09.414Z,0.00
2024-03-30T00:47:09.362Z,0.00
2024-03-30T00:48:09.345Z,0.00
2024-03-30T00:49:09.344Z,0.00
2024-03-30T00:50:09.291Z,0.00
2024-03-30T00:51:09.281Z,0.00
2024-03-30T00:52:09.272Z,0.00
2024-03-30T00:53:09.241Z,0.00
2024-03-30T00:54:09.268Z,0.00
2024-03-30T00:55:09.241Z,0.00
2024-03-30T00:56:09.251Z,0.00
2024-03-30T00:57:09.208Z,0.00
2024-03-30T00:58:09.209Z,0.00
2024-03-30T00:59:09.180Z,0.00
2024-03-30T01:00:09.171Z,0.00
2024-03-30T01:01:09.177Z,0.00
2024-03-30T01:02:09.175Z,0.00
2024-03-30T01:03:09.153Z,0.00
2024-03-30T01:04:09.131Z,0.00
2024-03-30T01:05:09.158Z,0.00
2024-03-30T01:06:09.131Z,0.00
2024-03-30T01:07:09.332Z,0.00
2024-03-30T01:08:09.931Z,0.00
2024-03-30T01:09:09.123Z,0.00
2024-03-30T01:10:09.077Z,0.00
2024-03-30T01:11:09.088Z,0.00
2024-03-30T01:12:09.038Z,0.00
2024-03-30T01:13:09.047Z,0.00
2024-03-30T01:14:09.058Z,0.00
2024-03-30T01:15:09.019Z,0.00
2024-03-30T01:16:08.991Z,0.00
2024-03-30T01:17:08.987Z,0.00
2024-03-30T01:18:08.970Z,0.00
2024-03-30T01:19:08.973Z,0.00
2024-03-30T01:20:08.961Z,0.00
2024-03-30T01:21:18.348Z,0.00
2024-03-30T01:22:09.940Z,0.00
2024-03-30T01:23:08.948Z,0.00
2024-03-30T01:24:08.914Z,0.00
2024-03-30T01:25:08.915Z,0.00
2024-03-30T01:26:16.698Z,0.00
2024-03-30T01:27:08.892Z,0.00
2024-03-30T01:28:09.197Z,0.00
2024-03-30T01:29:08.857Z,0.00
2024-03-30T01:30:08.905Z,0.00
2024-03-30T01:31:08.839Z,0.00
2024-03-30T01:32:08.860Z,0.00
2024-03-30T01:33:09.782Z,0.00
2024-03-30T01:34:08.828Z,0.00
2024-03-30T01:35:08.790Z,0.00
2024-03-30T01:36:08.793Z,0.00
2024-03-30T01:37:08.803Z,0.00
2024-03-30T01:38:08.764Z,0.00
2024-03-30T01:39:08.751Z,0.00
2024-03-30T01:40:08.737Z,0.00
2024-03-30T01:41:08.724Z,0.00
2024-03-30T01:42:08.708Z,0.00
2024-03-30T01:43:08.713Z,0.00
2024-03-30T01:44:08.670Z,0.00
2024-03-30T01:45:08.688Z,0.00
2024-03-30T01:46:08.678Z,0.00
2024-03-30T01:47:08.700Z,0.00
2024-03-30T01:48:09.449Z,0.00
2024-03-30T01:49:09.592Z,0.00
2024-03-30T01:50:08.835Z,0.00
2024-03-30T01:51:08.609Z,0.00
2024-03-30T01:52:08.601Z,0.00
2024-03-30T01:53:08.597Z,0.00
2024-03-30T01:54:08.586Z,0.00
2024-03-30T01:55:08.569Z,0.00
2024-03-30T01:56:08.552Z,0.00
2024-03-30T01:57:08.564Z,0.00
2024-03-30T01:58:08.532Z,0.00
2024-03-30T01:59:08.518Z,0.00
2024-03-30T02:00:08.515Z,0.00
2024-03-30T02:01:08.514Z,0.00
2024-03-30T02:02:08.523Z,0.00
2024-03-30T02:03:08.494Z,0.00
2024-03-30T02:04:08.464Z,0.00
2024-03-30T02:05:08.454Z,0.00
2024-03-30T02:06:08.459Z,0.00
2024-03-30T02:07:08.435Z,0.00
2024-03-30T02:08:09.374Z,0.00
2024-03-30T02:09:09.137Z,0.00
2024-03-30T02:10:09.243Z,0.00
2024-03-30T02:11:09.191Z,0.00
2024-03-30T02:12:08.391Z,0.00
2024-03-30T02:13:08.368Z,0.00
2024-03-30T02:14:08.362Z,0.00
2024-03-30T02:15:08.395Z,0.00
2024-03-30T02:16:08.400Z,0.00
2024-03-30T02:17:08.332Z,0.00
2024-03-30T02:18:08.310Z,0.00
2024-03-30T02:19:08.310Z,0.00
2024-03-30T02:20:08.281Z,0.00
2024-03-30T02:21:08.282Z,0.00
2024-03-30T02:22:08.282Z,0.00
2024-03-30T02:23:08.260Z,0.00
2024-03-30T02:24:08.270Z,0.00
2024-03-30T02:25:08.223Z,0.00
2024-03-30T02:26:08.212Z,0.00
2024-03-30T02:27:08.219Z,0.00
2024-03-30T02:28:08.219Z,0.00
2024-03-30T02:29:08.962Z,0.00
2024-03-30T02:30:08.978Z,0.00
2024-03-30T02:31:08.182Z,0.00
2024-03-30T02:32:08.163Z,0.00
2024-03-30T02:33:08.155Z,0.00
2024-03-30T02:34:08.143Z,0.00
2024-03-30T02:35:08.136Z,0.00
2024-03-30T02:36:08.130Z,0.00
2024-03-30T02:37:08.153Z,0.00
2024-03-30T02:38:08.095Z,0.00
2024-03-30T02:39:08.102Z,0.00
2024-03-30T02:40:09.034Z,0.00
2024-03-30T02:41:08.050Z,0.00
2024-03-30T02:42:08.068Z,0.00
2024-03-30T02:43:08.047Z,0.00
2024-03-30T02:44:08.034Z,0.00
2024-03-30T02:45:08.013Z,0.00
2024-03-30T02:46:08.010Z,0.00
2024-03-30T02:47:08.000Z,0.00
2024-03-30T02:48:08.036Z,0.00
2024-03-30T02:49:08.835Z,0.00
2024-03-30T02:50:08.650Z,0.00
2024-03-30T02:51:08.986Z,0.00
2024-03-30T02:52:08.081Z,0.00
2024-03-30T02:53:08.007Z,0.00
2024-03-30T02:54:08.010Z,0.00
2024-03-30T02:55:07.973Z,0.00
2024-03-30T02:56:08.039Z,0.00
2024-03-30T02:57:08.066Z,0.00
2024-03-30T02:58:07.891Z,0.00
2024-03-30T02:59:07.942Z,0.00
2024-03-30T03:00:08.147Z,0.00
2024-03-30T03:01:07.882Z,0.00
2024-03-30T03:02:08.030Z,0.00
2024-03-30T03:03:07.900Z,0.00
2024-03-30T03:04:07.838Z,0.00
2024-03-30T03:05:07.834Z,0.00
2024-03-30T03:06:07.985Z,0.00
2024-03-30T03:07:07.770Z,0.00
2024-03-30T03:08:07.756Z,0.00
2024-03-30T03:09:07.789Z,0.00
2024-03-30T03:10:07.804Z,0.00
2024-03-30T03:11:07.745Z,0.00
2024-03-30T03:12:08.533Z,0.00
2024-03-30T03:13:07.758Z,0.00
2024-03-30T03:14:07.712Z,0.00
2024-03-30T03:15:07.700Z,0.00
2024-03-30T03:16:07.702Z,0.00
2024-03-30T03:17:07.687Z,0.00
2024-03-30T03:18:07.677Z,0.00
2024-03-30T03:19:07.634Z,0.00
2024-03-30T03:20:07.624Z,0.00
2024-03-30T03:21:07.634Z,0.00
2024-03-30T03:22:07.620Z,0.00
2024-03-30T03:23:07.598Z,0.00
2024-03-30T03:24:07.593Z,0.00
2024-03-30T03:25:07.576Z,0.00
2024-03-30T03:26:07.583Z,0.00
2024-03-30T03:27:07.553Z,0.00
2024-03-30T03:28:07.722Z,0.00
2024-03-30T03:29:07.551Z,0.00
2024-03-30T03:30:07.527Z,0.00
2024-03-30T03:31:08.479Z,0.00
2024-03-30T03:32:07.541Z,0.00
2024-03-30T03:33:07.495Z,0.00
2024-03-30T03:34:07.486Z,0.00
2024-03-30T03:35:07.480Z,0.00
2024-03-30T03:36:07.462Z,0.00
2024-03-30T03:37:07.451Z,0.00
2024-03-30T03:38:07.426Z,0.00
2024-03-30T03:39:07.418Z,0.00
2024-03-30T03:40:07.442Z,0.00
2024-03-30T03:41:07.409Z,0.00
2024-03-30T03:42:07.816Z,0.00
2024-03-30T03:43:07.385Z,0.00
2024-03-30T03:44:07.401Z,0.00
2024-03-30T03:45:07.362Z,0.00
2024-03-30T03:46:07.333Z,0.00
2024-03-30T03:47:07.337Z,0.00
2024-03-30T03:48:07.335Z,0.00
2024-03-30T03:49:07.305Z,0.00
2024-03-30T03:50:07.304Z,0.00
2024-03-30T03:51:08.129Z,0.00
2024-03-30T03:52:08.253Z,0.00
2024-03-30T03:53:07.260Z,0.00
2024-03-30T03:54:07.256Z,0.00
2024-03-30T03:55:07.248Z,0.00
2024-03-30T03:56:07.221Z,0.00
2024-03-30T03:57:07.207Z,0.00
2024-03-30T03:58:07.213Z,0.00
2024-03-30T03:59:07.210Z,0.00
2024-03-30T04:00:07.184Z,0.00
2024-03-30T04:01:07.272Z,0.00
2024-03-30T04:02:07.204Z,0.00
2024-03-30T04:03:07.146Z,0.00
2024-03-30T04:04:07.139Z,0.00
2024-03-30T04:05:07.127Z,0.00
2024-03-30T04:06:07.162Z,0.00
2024-03-30T04:07:07.127Z,0.00
2024-03-30T04:08:07.089Z,0.00
2024-03-30T04:09:07.075Z,0.00
2024-03-30T04:10:07.088Z,0.00
2024-03-30T04:11:07.545Z,0.00
2024-03-30T04:12:07.869Z,0.00
2024-03-30T04:13:07.234Z,0.00
2024-03-30T04:14:07.046Z,0.00
2024-03-30T04:15:07.027Z,0.00
2024-03-30T04:16:06.994Z,0.00
2024-03-30T04:17:07.013Z,0.00
2024-03-30T04:18:07.295Z,0.00
2024-03-30T04:19:07.000Z,0.00
2024-03-30T04:20:06.956Z,0.00
2024-03-30T04:21:07.900Z,0.00
2024-03-30T04:22:06.966Z,0.00
2024-03-30T04:23:07.061Z,0.00
2024-03-30T04:24:06.955Z,0.00
2024-03-30T04:25:06.913Z,0.00
2024-03-30T04:26:06.894Z,0.00
2024-03-30T04:27:06.872Z,0.00
2024-03-30T04:28:06.866Z,0.00
2024-03-30T04:29:07.778Z,0.00
2024-03-30T04:30:06.852Z,0.00
2024-03-30T04:31:07.151Z,0.00
2024-03-30T04:32:07.737Z,0.00
2024-03-30T04:33:06.832Z,0.00
2024-03-30T04:34:06.825Z,0.00
2024-03-30T04:35:06.824Z,0.00
2024-03-30T04:36:06.803Z,0.00
2024-03-30T04:37:06.779Z,0.00
2024-03-30T04:38:06.764Z,0.00
2024-03-30T04:39:06.757Z,0.00
2024-03-30T04:40:06.746Z,0.00
2024-03-30T04:41:06.729Z,0.00
2024-03-30T04:42:06.727Z,0.00
2024-03-30T04:43:06.772Z,0.00
2024-03-30T04:44:06.687Z,0.00
2024-03-30T04:45:07.519Z,4.00
2024-03-30T04:46:06.691Z,0.00
2024-03-30T04:47:06.672Z,4.00
2024-03-30T04:48:06.649Z,4.00
2024-03-30T04:49:08.210Z,8.00
2024-03-30T04:50:06.630Z,4.00
2024-03-30T04:51:06.833Z,8.00
2024-03-30T04:52:06.681Z,8.00
2024-03-30T04:53:07.524Z,8.00
2024-03-30T04:54:06.771Z,12.00
2024-03-30T04:55:06.815Z,12.00
2024-03-30T04:56:06.635Z,12.00
2024-03-30T04:57:06.558Z,16.00
2024-03-30T04:58:06.535Z,20.00
2024-03-30T04:59:06.527Z,20.00
2024-03-30T05:00:06.616Z,24.00
2024-03-30T05:01:06.525Z,28.00
2024-03-30T05:02:06.510Z,32.00
2024-03-30T05:03:06.502Z,32.00
2024-03-30T05:04:06.504Z,32.00
2024-03-30T05:05:06.847Z,40.00
2024-03-30T05:06:06.452Z,40.00
2024-03-30T05:07:06.652Z,44.00
2024-03-30T05:08:06.431Z,44.00
2024-03-30T05:09:06.433Z,48.00
2024-03-30T05:10:06.419Z,48.00
2024-03-30T05:11:06.448Z,56.00
2024-03-30T05:12:07.248Z,56.00
2024-03-30T05:13:07.139Z,60.00
2024-03-30T05:14:07.290Z,68.00
2024-03-30T05:15:07.088Z,72.00
2024-03-30T05:16:06.377Z,80.00
2024-03-30T05:17:06.332Z,92.00
2024-03-30T05:18:06.328Z,100.00
2024-03-30T05:19:06.317Z,108.00
2024-03-30T05:20:06.752Z,120.00
2024-03-30T05:21:06.293Z,128.00
2024-03-30T05:22:06.300Z,140.00
2024-03-30T05:23:06.294Z,152.00
2024-03-30T05:24:06.265Z,160.00
2024-03-30T05:25:06.271Z,172.00
2024-03-30T05:26:06.242Z,188.00
2024-03-30T05:27:06.238Z,204.00
2024-03-30T05:28:06.234Z,220.00
2024-03-30T05:29:06.206Z,240.00
2024-03-30T05:30:07.033Z,264.00
2024-03-30T05:31:06.206Z,288.00
2024-03-30T05:32:06.192Z,308.00
2024-03-30T05:33:06.896Z,332.00
2024-03-30T05:34:06.915Z,348.00
2024-03-30T05:35:06.150Z,364.00
2024-03-30T05:36:06.143Z,376.00
2024-03-30T05:37:06.137Z,380.00
2024-03-30T05:38:06.117Z,396.00
2024-03-30T05:39:06.098Z,420.00
2024-03-30T05:40:06.142Z,452.00
2024-03-30T05:41:06.069Z,480.00
2024-03-30T05:42:06.068Z,500.00
2024-03-30T05:43:06.041Z,508.00
2024-03-30T05:44:06.060Z,516.00
2024-03-30T05:45:06.050Z,516.00
2024-03-30T05:46:06.034Z,512.00
2024-03-30T05:47:06.954Z,504.00
2024-03-30T05:48:05.994Z,512.00
2024-03-30T05:49:06.026Z,520.00
2024-03-30T05:50:06.012Z,540.00
2024-03-30T05:51:05.954Z,560.00
2024-03-30T05:52:05.960Z,580.00
2024-03-30T05:53:06.892Z,592.00
2024-03-30T05:54:05.936Z,596.00
2024-03-30T05:55:06.105Z,604.00
2024-03-30T05:56:05.965Z,616.00
2024-03-30T05:57:15.612Z,636.00
2024-03-30T05:58:06.865Z,656.00
2024-03-30T05:59:05.896Z,664.00
2024-03-30T06:00:05.853Z,680.00
2024-03-30T06:01:05.875Z,704.00
2024-03-30T06:02:05.922Z,724.00
2024-03-30T06:03:05.815Z,744.00
2024-03-30T06:04:05.800Z,764.00
2024-03-30T06:05:05.788Z,792.00
2024-03-30T06:06:05.816Z,820.00
2024-03-30T06:07:05.827Z,848.00
2024-03-30T06:08:05.793Z,872.00
2024-03-30T06:09:05.829Z,892.00
2024-03-30T06:10:07.445Z,900.00
2024-03-30T06:11:05.757Z,896.00
2024-03-30T06:12:05.734Z,896.00
2024-03-30T06:13:05.747Z,908.00
2024-03-30T06:14:06.570Z,924.00
2024-03-30T06:15:06.173Z,952.00
2024-03-30T06:16:06.474Z,968.00
2024-03-30T06:17:05.818Z,992.00
2024-03-30T06:18:05.771Z,1044.00
2024-03-30T06:19:05.642Z,1092.00
2024-03-30T06:20:05.946Z,1136.00
2024-03-30T06:21:06.590Z,1196.00
2024-03-30T06:22:05.598Z,1260.00
2024-03-30T06:23:05.597Z,1332.00
2024-03-30T06:24:05.596Z,1388.00
2024-03-30T06:25:05.585Z,1384.00
2024-03-30T06:26:05.603Z,1352.00
2024-03-30T06:27:05.560Z,1360.00
2024-03-30T06:28:05.553Z,1452.00
2024-03-30T06:29:05.529Z,1532.00
2024-03-30T06:30:05.580Z,1544.00
2024-03-30T06:31:05.512Z,1552.00
2024-03-30T06:32:05.546Z,1628.00
2024-03-30T06:33:05.518Z,1772.00
2024-03-30T06:34:06.268Z,1920.00
2024-03-30T06:35:06.433Z,2016.00
2024-03-30T06:36:05.543Z,2064.00
2024-03-30T06:37:05.615Z,2108.00
2024-03-30T06:38:05.430Z,2128.00
2024-03-30T06:39:05.449Z,2140.00
2024-03-30T06:40:05.419Z,2200.00
2024-03-30T06:41:05.399Z,2240.00
2024-03-30T06:42:05.662Z,2220.00
2024-03-30T06:43:05.399Z,2160.00
2024-03-30T06:44:05.380Z,2096.00
2024-03-30T06:45:05.364Z,2068.00
2024-03-30T06:46:05.373Z,2092.00
2024-03-30T06:47:05.335Z,2160.00
2024-03-30T06:48:05.534Z,2220.00
2024-03-30T06:49:05.354Z,2228.00
2024-03-30T06:50:05.328Z,2156.00
2024-03-30T06:51:05.393Z,2068.00
2024-03-30T06:52:05.493Z,2008.00
2024-03-30T06:53:05.631Z,1964.00
2024-03-30T06:54:05.258Z,1936.00
2024-03-30T06:55:05.639Z,1928.00
2024-03-30T06:56:06.224Z,1924.00
2024-03-30T06:57:05.349Z,1876.00
2024-03-30T06:58:05.395Z,1816.00
2024-03-30T06:59:05.237Z,1732.00
2024-03-30T07:00:05.277Z,1636.00
2024-03-30T07:01:05.188Z,1596.00
2024-03-30T07:02:05.156Z,1608.00
2024-03-30T07:03:05.200Z,1644.00
2024-03-30T07:04:05.313Z,1656.00
2024-03-30T07:05:05.135Z,1688.00
2024-03-30T07:06:05.140Z,1740.00
2024-03-30T07:07:05.140Z,1840.00
2024-03-30T07:08:05.149Z,2012.00
2024-03-30T07:09:05.130Z,2168.00
2024-03-30T07:10:05.117Z,2272.00
2024-03-30T07:11:05.113Z,2336.00
2024-03-30T07:12:05.085Z,2420.00
2024-03-30T07:13:05.111Z,2476.00
2024-03-30T07:14:05.123Z,2464.00
2024-03-30T07:15:05.158Z,2432.00
2024-03-30T07:16:05.370Z,2404.00
2024-03-30T07:17:14.250Z,2348.00
2024-03-30T07:18:06.005Z,2260.00
2024-03-30T07:19:04.963Z,2140.00
2024-03-30T07:20:05.116Z,2004.00
2024-03-30T07:21:05.135Z,1872.00
2024-03-30T07:22:04.919Z,1780.00
2024-03-30T07:23:04.990Z,1716.00
2024-03-30T07:24:05.052Z,1668.00
2024-03-30T07:25:04.891Z,1636.00
2024-03-30T07:26:04.883Z,1536.00
2024-03-30T07:27:04.901Z,1604.00
2024-03-30T07:28:04.850Z,1916.00
2024-03-30T07:29:04.852Z,2240.00
2024-03-30T07:30:04.916Z,2576.00
2024-03-30T07:31:04.824Z,2836.00
2024-03-30T07:32:04.820Z,3008.00
2024-03-30T07:33:04.849Z,3052.00
2024-03-30T07:34:04.827Z,2992.00
2024-03-30T07:35:04.786Z,2892.00
2024-03-30T07:36:05.697Z,2816.00
2024-03-30T07:37:05.613Z,2804.00
2024-03-30T07:38:04.795Z,2796.00
2024-03-30T07:39:04.799Z,2644.00
2024-03-30T07:40:04.728Z,2372.00
2024-03-30T07:41:04.716Z,2152.00
2024-03-30T07:42:04.763Z,1968.00
2024-03-30T07:43:04.702Z,1876.00
2024-03-30T07:44:04.716Z,1848.00
2024-03-30T07:45:04.741Z,1780.00
2024-03-30T07:46:04.653Z,1724.00
2024-03-30T07:47:04.658Z,1684.00
2024-03-30T07:48:04.678Z,1668.00
2024-03-30T07:49:04.638Z,1656.00
2024-03-30T07:50:04.630Z,1748.00
2024-03-30T07:51:04.642Z,1844.00
2024-03-30T07:52:04.605Z,1868.00
2024-03-30T07:53:04.612Z,1864.00
2024-03-30T07:54:04.596Z,1848.00
2024-03-30T07:55:04.555Z,1860.00
2024-03-30T07:56:04.644Z,1940.00
2024-03-30T07:57:04.609Z,1964.00
2024-03-30T07:58:04.760Z,2032.00
2024-03-30T07:59:04.770Z,2128.00
2024-03-30T08:00:04.521Z,2164.00
2024-03-30T08:01:04.491Z,2144.00
2024-03-30T08:02:04.549Z,2136.00
2024-03-30T08:03:04.600Z,2180.00
2024-03-30T08:04:04.457Z,2256.00
2024-03-30T08:05:06.538Z,2272.00
2024-03-30T08:06:04.473Z,2268.00
2024-03-30T08:07:04.421Z,2216.00
2024-03-30T08:08:04.448Z,2232.00
2024-03-30T08:09:04.489Z,2304.00
2024-03-30T08:10:04.403Z,2468.00
2024-03-30T08:11:04.391Z,2672.00
2024-03-30T08:12:04.564Z,2864.00
2024-03-30T08:13:04.373Z,3064.00
2024-03-30T08:14:04.342Z,3196.00
2024-03-30T08:15:04.372Z,3324.00
2024-03-30T08:16:04.400Z,3444.00
2024-03-30T08:17:05.096Z,3632.00
2024-03-30T08:18:04.579Z,3780.00
2024-03-30T08:19:04.306Z,3880.00
2024-03-30T08:20:04.298Z,3804.00
2024-03-30T08:21:04.301Z,3548.00
2024-03-30T08:22:04.296Z,3264.00
2024-03-30T08:23:04.280Z,2996.00
2024-03-30T08:24:04.285Z,2780.00
2024-03-30T08:25:04.302Z,2620.00
2024-03-30T08:26:04.234Z,2532.00
2024-03-30T08:27:04.271Z,2416.00
2024-03-30T08:28:04.243Z,2284.00
2024-03-30T08:29:04.195Z,2204.00
2024-03-30T08:30:04.204Z,2180.00
2024-03-30T08:31:04.160Z,2200.00
2024-03-30T08:32:04.168Z,2204.00
2024-03-30T08:33:04.166Z,2160.00
2024-03-30T08:34:04.141Z,2188.00
2024-03-30T08:35:04.150Z,2296.00
2024-03-30T08:36:04.159Z,2424.00
2024-03-30T08:37:04.106Z,2572.00
2024-03-30T08:38:04.201Z,2764.00
2024-03-30T08:39:04.128Z,2976.00
2024-03-30T08:40:04.089Z,3252.00
2024-03-30T08:41:04.055Z,3468.00
2024-03-30T08:42:04.080Z,3580.00
2024-03-30T08:43:04.058Z,3616.00
2024-03-30T08:44:04.058Z,3600.00
2024-03-30T08:45:04.061Z,3600.00
2024-03-30T08:46:04.001Z,3628.00
2024-03-30T08:47:03.993Z,3632.00
2024-03-30T08:48:03.995Z,3728.00
2024-03-30T08:49:03.976Z,3976.00
2024-03-30T08:50:03.978Z,4216.00
2024-03-30T08:51:03.993Z,4408.00
2024-03-30T08:52:03.931Z,4532.00
2024-03-30T08:53:04.293Z,4664.00
2024-03-30T08:54:05.181Z,4776.00
2024-03-30T08:55:04.100Z,4920.00
2024-03-30T08:56:04.051Z,5108.00
2024-03-30T08:57:04.075Z,5280.00
2024-03-30T08:58:04.079Z,5364.00
2024-03-30T08:59:06.272Z,5400.00
2024-03-30T09:00:04.348Z,5376.00
2024-03-30T09:01:03.840Z,5396.00
2024-03-30T09:02:03.928Z,5460.00
2024-03-30T09:03:03.873Z,5440.00
2024-03-30T09:04:03.872Z,5332.00
2024-03-30T09:05:03.816Z,5220.00
2024-03-30T09:06:03.909Z,5192.00
2024-03-30T09:07:03.795Z,5276.00
2024-03-30T09:08:03.774Z,5344.00
2024-03-30T09:09:03.789Z,5440.00
2024-03-30T09:10:03.738Z,5464.00
2024-03-30T09:11:03.732Z,5440.00
2024-03-30T09:12:03.748Z,5460.00
2024-03-30T09:13:03.717Z,5432.00
2024-03-30T09:14:03.690Z,5356.00
2024-03-30T09:15:03.692Z,5296.00
2024-03-30T09:16:03.744Z,5328.00
2024-03-30T09:17:03.662Z,5440.00
2024-03-30T09:18:03.676Z,5572.00
2024-03-30T09:19:03.636Z,5660.00
2024-03-30T09:20:03.668Z,5820.00
2024-03-30T09:21:03.644Z,5908.00
2024-03-30T09:22:03.637Z,5880.00
2024-03-30T09:23:03.617Z,5804.00
2024-03-30T09:24:03.602Z,5756.00
2024-03-30T09:25:03.570Z,5720.00
2024-03-30T09:26:03.555Z,5688.00
2024-03-30T09:27:03.563Z,5668.00
2024-03-30T09:28:03.651Z,5672.00
2024-03-30T09:29:03.518Z,5668.00
2024-03-30T09:30:03.528Z,5660.00
2024-03-30T09:31:03.501Z,5632.00
2024-03-30T09:32:03.492Z,5592.00
2024-03-30T09:33:03.493Z,5560.00
2024-03-30T09:34:03.474Z,5528.00
2024-03-30T09:35:03.480Z,5496.00
2024-03-30T09:36:03.446Z,5464.00
2024-03-30T09:37:03.439Z,5404.00
2024-03-30T09:38:03.809Z,5368.00
2024-03-30T09:39:03.424Z,5352.00
2024-03-30T09:40:03.402Z,5384.00
2024-03-30T09:41:03.387Z,5444.00
2024-03-30T09:42:03.413Z,5508.00
2024-03-30T09:43:03.387Z,5572.00
2024-03-30T09:44:03.369Z,5612.00
2024-03-30T09:45:03.362Z,5632.00
2024-03-30T09:46:03.340Z,5648.00
2024-03-30T09:47:03.322Z,5664.00
2024-03-30T09:48:03.320Z,5684.00
2024-03-30T09:49:03.313Z,5704.00
2024-03-30T09:50:03.286Z,5736.00
2024-03-30T09:51:03.276Z,5776.00
2024-03-30T09:52:03.270Z,5808.00
2024-03-30T09:53:03.468Z,5836.00
2024-03-30T09:54:03.248Z,5876.00
2024-03-30T09:55:03.227Z,5924.00
2024-03-30T09:56:03.220Z,5960.00
2024-03-30T09:57:03.228Z,6000.00
2024-03-30T09:58:03.226Z,6056.00
2024-03-30T09:59:03.200Z,6112.00
2024-03-30T10:00:04.194Z,6160.00
2024-03-30T10:01:03.166Z,6196.00
2024-03-30T10:02:03.178Z,6220.00
2024-03-30T10:03:03.155Z,6248.00
2024-03-30T10:04:03.136Z,6312.00
2024-03-30T10:05:03.126Z,6384.00
2024-03-30T10:06:03.171Z,6384.00
2024-03-30T10:07:03.099Z,6344.00
2024-03-30T10:08:03.093Z,6316.00
2024-03-30T10:09:03.096Z,6260.00
2024-03-30T10:10:03.075Z,6240.00
2024-03-30T10:11:05.186Z,6248.00
2024-03-30T10:12:03.054Z,6316.00
2024-03-30T10:13:03.059Z,6376.00
2024-03-30T10:14:07.461Z,6444.00
2024-03-30T10:15:03.148Z,6536.00
2024-03-30T10:16:03.003Z,6580.00
2024-03-30T10:17:02.983Z,6540.00
2024-03-30T10:18:03.023Z,6460.00
2024-03-30T10:19:02.972Z,6460.00
2024-03-30T10:20:03.033Z,6512.00
2024-03-30T10:21:02.962Z,6588.00
2024-03-30T10:22:02.929Z,6672.00
2024-03-30T10:23:02.918Z,6672.00
2024-03-30T10:24:02.911Z,6516.00
2024-03-30T10:25:02.904Z,6352.00
2024-03-30T10:26:02.879Z,6244.00
2024-03-30T10:27:02.882Z,6140.00
2024-03-30T10:28:02.877Z,6052.00
2024-03-30T10:29:02.851Z,6088.00
2024-03-30T10:30:02.876Z,6156.00
2024-03-30T10:31:02.856Z,6276.00
2024-03-30T10:32:04.461Z,6396.00
2024-03-30T10:33:02.851Z,6496.00
2024-03-30T10:34:02.799Z,6560.00
2024-03-30T10:35:02.821Z,6652.00
2024-03-30T10:36:02.772Z,6776.00
2024-03-30T10:37:02.764Z,6844.00
2024-03-30T10:38:02.761Z,6888.00
2024-03-30T10:39:02.747Z,6808.00
2024-03-30T10:40:02.751Z,6672.00
2024-03-30T10:41:02.759Z,6472.00
2024-03-30T10:42:02.705Z,6084.00
2024-03-30T10:43:02.687Z,5376.00
2024-03-30T10:44:02.724Z,4588.00
2024-03-30T10:45:02.713Z,3948.00
2024-03-30T10:46:02.734Z,3752.00
2024-03-30T10:47:02.650Z,3812.00
2024-03-30T10:48:02.647Z,4056.00
2024-03-30T10:49:02.654Z,4360.00
2024-03-30T10:50:02.625Z,4544.00
2024-03-30T10:51:02.644Z,4472.00
2024-03-30T10:52:02.590Z,4252.00
2024-03-30T10:53:02.590Z,4084.00
2024-03-30T10:54:02.628Z,3968.00
2024-03-30T10:55:02.574Z,3840.00
2024-03-30T10:56:02.557Z,3840.00
2024-03-30T10:57:02.598Z,3896.00
2024-03-30T10:58:02.523Z,4016.00
2024-03-30T10:59:02.519Z,4084.00
2024-03-30T11:00:02.945Z,4004.00
2024-03-30T11:01:02.874Z,4124.00
2024-03-30T11:02:02.904Z,4484.00
2024-03-30T11:03:02.472Z,4672.00
2024-03-30T11:04:02.539Z,4800.00
2024-03-30T11:05:02.471Z,4760.00
2024-03-30T11:06:02.443Z,4664.00
2024-03-30T11:07:02.435Z,4632.00
2024-03-30T11:08:03.295Z,4552.00
2024-03-30T11:09:02.457Z,4244.00
2024-03-30T11:10:02.503Z,4204.00
2024-03-30T11:11:02.419Z,4304.00
2024-03-30T11:12:02.423Z,4124.00
2024-03-30T11:13:02.371Z,3940.00
2024-03-30T11:14:02.393Z,3912.00
2024-03-30T11:15:02.349Z,3792.00
2024-03-30T11:16:02.390Z,3608.00
2024-03-30T11:17:02.312Z,3340.00
2024-03-30T11:18:02.341Z,3016.00
2024-03-30T11:19:02.314Z,2860.00
2024-03-30T11:20:02.272Z,2944.00
2024-03-30T11:21:02.756Z,3100.00
2024-03-30T11:22:03.211Z,3220.00
2024-03-30T11:23:02.260Z,3184.00
2024-03-30T11:24:02.372Z,3048.00
2024-03-30T11:25:07.403Z,2916.00
2024-03-30T11:26:02.210Z,2724.00
2024-03-30T11:27:02.233Z,2528.00
2024-03-30T11:28:02.184Z,2444.00
2024-03-30T11:29:02.253Z,2408.00
2024-03-30T11:30:02.189Z,2376.00
2024-03-30T11:31:02.159Z,2332.00
2024-03-30T11:32:02.142Z,2324.00
2024-03-30T11:33:02.138Z,2360.00
2024-03-30T11:34:02.124Z,2384.00
2024-03-30T11:35:03.489Z,2412.00
2024-03-30T11:36:02.092Z,2452.00
2024-03-30T11:37:02.091Z,2544.00
2024-03-30T11:38:02.086Z,2648.00
2024-03-30T11:39:02.062Z,2764.00
2024-03-30T11:40:02.090Z,2840.00
2024-03-30T11:41:02.064Z,2804.00
2024-03-30T11:42:02.302Z,2748.00
2024-03-30T11:43:02.062Z,2712.00
2024-03-30T11:44:02.156Z,2712.00
2024-03-30T11:45:02.059Z,2748.00
2024-03-30T11:46:02.015Z,2828.00
2024-03-30T11:47:01.985Z,2920.00
2024-03-30T11:48:01.983Z,3040.00
2024-03-30T11:49:01.994Z,3128.00
2024-03-30T11:50:01.972Z,3160.00
2024-03-30T11:51:01.950Z,3276.00
2024-03-30T11:52:01.934Z,3272.00
2024-03-30T11:53:02.702Z,3232.00
2024-03-30T11:54:01.911Z,3136.00
2024-03-30T11:55:01.931Z,3100.00
2024-03-30T11:56:01.887Z,3024.00
2024-03-30T11:57:07.034Z,2968.00
2024-03-30T11:58:02.847Z,2992.00
2024-03-30T11:59:01.850Z,3000.00
2024-03-30T12:00:01.833Z,3000.00
2024-03-30T12:01:02.125Z,2896.00
2024-03-30T12:02:02.587Z,2720.00
2024-03-30T12:03:02.604Z,2532.00
2024-03-30T12:04:01.810Z,2536.00
2024-03-30T12:05:04.618Z,2616.00
2024-03-30T12:06:01.785Z,2644.00
2024-03-30T12:07:01.752Z,2592.00
2024-03-30T12:08:01.774Z,2500.00
2024-03-30T12:09:01.737Z,2420.00
2024-03-30T12:10:01.718Z,2324.00
2024-03-30T12:11:03.653Z,2224.00
2024-03-30T12:12:01.699Z,2240.00
2024-03-30T12:13:01.694Z,2356.00
2024-03-30T12:14:01.685Z,2548.00
2024-03-30T12:15:01.688Z,2648.00
2024-03-30T12:16:01.651Z,2748.00
2024-03-30T12:17:01.651Z,2840.00
2024-03-30T12:18:01.641Z,2872.00
2024-03-30T12:19:01.633Z,2868.00
2024-03-30T12:20:01.625Z,2920.00
2024-03-30T12:21:01.598Z,2960.00
2024-03-30T12:22:02.565Z,3008.00
2024-03-30T12:23:02.462Z,3036.00
2024-03-30T12:24:01.579Z,3064.00
2024-03-30T12:25:01.558Z,3080.00
2024-03-30T12:26:01.553Z,3076.00
2024-03-30T12:27:01.574Z,3016.00
2024-03-30T12:28:01.520Z,2992.00
2024-03-30T12:29:01.515Z,2972.00
2024-03-30T12:30:01.533Z,2928.00
2024-03-30T12:31:01.494Z,2900.00
2024-03-30T12:32:01.481Z,2912.00
2024-03-30T12:33:01.480Z,2936.00
2024-03-30T12:34:01.460Z,2900.00
2024-03-30T12:35:01.456Z,2812.00